Time;durP1;ratioP1;P1;durP2;ratioP2;P2;SDS_P1;SDS_P2;PMS_P1;PMS_P2;Temp;Humidity;BMP_temperature;BMP_pressure;BME280_temperature;BME280_humidity;BME280_pressure;Samples;Min_cycle;Max_cycle;Signal;HPM_P1;HPM_P2
2020/12/25 00:01:24;;;;;;;1.52;0.85;;;18.20;58.70;;;;;;5044227;28;20183;-63
2020/12/25 00:03:50;;;;;;;2.47;0.80;;;18.20;58.70;;;;;;5044502;28;20271;-62
2020/12/25 00:06:16;;;;;;;4.47;0.95;;;18.20;58.70;;;;;;5044576;28;20258;-62
2020/12/25 00:08:41;;;;;;;1.25;0.93;;;18.20;58.70;;;;;;5044372;28;20239;-63
2020/12/25 00:11:07;;;;;;;1.30;0.90;;;18.10;58.60;;;;;;5044192;28;20178;-63
2020/12/25 00:13:32;;;;;;;1.25;0.90;;;18.10;58.60;;;;;;5043710;28;20658;-62
2020/12/25 00:15:58;;;;;;;1.00;0.60;;;18.10;58.60;;;;;;5044442;28;20171;-64
2020/12/25 00:18:24;;;;;;;1.13;0.90;;;18.10;58.60;;;;;;5044369;28;20178;-63
2020/12/25 00:20:51;;;;;;;1.00;0.85;;;18.10;58.60;;;;;;5044345;28;20179;-63
2020/12/25 00:23:16;;;;;;;1.40;0.95;;;18.00;58.60;;;;;;5044234;28;20171;-61
2020/12/25 00:25:42;;;;;;;1.48;1.10;;;18.10;58.60;;;;;;5044573;28;20178;-62
2020/12/25 00:28:07;;;;;;;1.58;0.75;;;18.00;58.70;;;;;;5044142;28;20264;-62
2020/12/25 00:30:33;;;;;;;1.60;1.17;;;18.10;58.60;;;;;;5044276;28;20187;-61
2020/12/25 00:32:58;;;;;;;2.40;1.00;;;18.00;58.50;;;;;;5044145;28;20617;-62
2020/12/25 00:35:24;;;;;;;1.25;0.93;;;18.00;58.50;;;;;;5044342;28;20584;-62
2020/12/25 00:37:49;;;;;;;1.30;0.80;;;18.00;58.60;;;;;;5044377;28;20183;-61
2020/12/25 00:40:15;;;;;;;1.55;0.98;;;18.00;58.50;;;;;;5044563;28;20257;-62
2020/12/25 00:42:41;;;;;;;2.38;1.20;;;17.90;58.50;;;;;;5044056;28;20175;-63
2020/12/25 00:45:06;;;;;;;1.27;0.77;;;18.00;58.50;;;;;;5044011;28;20254;-61
2020/12/25 00:47:32;;;;;;;0.90;0.82;;;17.90;58.50;;;;;;5044142;28;20336;-61
2020/12/25 00:49:57;;;;;;;1.42;1.08;;;17.90;58.50;;;;;;5044229;28;20198;-61
2020/12/25 00:52:24;;;;;;;2.20;1.10;;;17.80;58.50;;;;;;5044079;28;20201;-62
2020/12/25 00:54:50;;;;;;;1.52;0.90;;;17.80;58.40;;;;;;5043887;28;20167;-61
2020/12/25 00:57:16;;;;;;;2.55;1.33;;;17.90;58.50;;;;;;5044128;28;20175;-63
2020/12/25 00:59:41;;;;;;;1.48;0.98;;;17.90;58.50;;;;;;5043718;28;21000;-61
2020/12/25 01:02:07;;;;;;;1.40;0.90;;;17.80;58.40;;;;;;5043715;28;20545;-62
2020/12/25 01:04:32;;;;;;;1.08;0.85;;;17.90;58.60;;;;;;5043366;28;20179;-61
2020/12/25 01:06:58;;;;;;;1.77;1.00;;;17.80;58.50;;;;;;5043737;28;20775;-62
2020/12/25 01:09:24;;;;;;;2.15;0.82;;;17.80;58.50;;;;;;5043895;28;20743;-62
2020/12/25 01:11:50;;;;;;;1.42;0.88;;;17.80;58.50;;;;;;5043938;28;21004;-62
2020/12/25 01:14:15;;;;;;;2.20;0.73;;;17.80;58.40;;;;;;5043764;28;20175;-63
2020/12/25 01:16:41;;;;;;;1.05;0.90;;;17.70;58.40;;;;;;5026092;28;20201;-62
2020/12/25 01:19:06;;;;;;;1.83;1.25;;;17.80;58.40;;;;;;5043758;28;20186;-64
2020/12/25 01:21:32;;;;;;;2.65;1.08;;;17.70;58.40;;;;;;5043744;28;20186;-63
2020/12/25 01:23:57;;;;;;;2.00;0.68;;;17.70;58.30;;;;;;5045091;28;20182;-62
2020/12/25 01:26:23;;;;;;;1.67;0.90;;;17.70;58.40;;;;;;5047691;28;20175;-62
2020/12/25 01:28:49;;;;;;;2.45;0.90;;;17.70;58.40;;;;;;5047222;28;20222;-61
2020/12/25 01:31:14;;;;;;;1.38;0.90;;;17.70;58.40;;;;;;5047502;28;20171;-61
2020/12/25 01:33:40;;;;;;;2.72;1.10;;;17.70;58.40;;;;;;5047344;28;20263;-62
2020/12/25 01:36:06;;;;;;;2.45;1.00;;;17.70;58.50;;;;;;5047326;28;20167;-62
2020/12/25 01:38:32;;;;;;;1.05;0.70;;;17.70;58.50;;;;;;5047287;28;20254;-62
2020/12/25 01:40:57;;;;;;;1.25;0.70;;;17.60;58.40;;;;;;5029479;28;20178;-62
2020/12/25 01:43:24;;;;;;;2.28;1.15;;;17.60;58.50;;;;;;5046996;28;20182;-64
2020/12/25 01:45:49;;;;;;;1.80;0.70;;;17.60;58.50;;;;;;5047256;28;20171;-63
2020/12/25 01:48:15;;;;;;;1.73;0.90;;;17.60;58.50;;;;;;5029585;28;20215;-62
2020/12/25 01:50:40;;;;;;;1.42;0.80;;;17.60;58.50;;;;;;5029689;28;20179;-63
2020/12/25 01:53:08;;;;;;;1.63;1.10;;;17.60;58.50;;;;;;5012870;28;20254;-62
2020/12/25 01:55:34;;;;;;;1.42;1.00;;;17.60;58.50;;;;;;5029327;28;20186;-63
2020/12/25 01:58:00;;;;;;;1.48;0.98;;;17.50;58.50;;;;;;5046922;28;20175;-62
2020/12/25 02:00:25;;;;;;;1.02;0.80;;;17.60;58.50;;;;;;5046901;28;20224;-61
2020/12/25 02:02:51;;;;;;;2.63;1.17;;;17.60;58.50;;;;;;5029321;28;20179;-62
2020/12/25 02:05:17;;;;;;;1.65;0.80;;;17.50;58.40;;;;;;5046790;28;20178;-61
2020/12/25 02:07:43;;;;;;;1.80;0.90;;;17.50;58.40;;;;;;5046814;28;20203;-62
2020/12/25 02:10:10;;;;;;;1.20;0.80;;;17.50;58.20;;;;;;5046641;28;20587;-62
2020/12/25 02:12:35;;;;;;;1.33;0.70;;;17.50;58.20;;;;;;5046691;28;20172;-62
2020/12/25 02:15:01;;;;;;;2.72;1.17;;;17.50;58.20;;;;;;5029108;28;20242;-63
2020/12/25 02:17:26;;;;;;;1.73;0.80;;;17.50;58.30;;;;;;5046389;28;20222;-61
2020/12/25 02:19:52;;;;;;;1.15;0.88;;;17.50;58.20;;;;;;5046659;28;20175;-63
2020/12/25 02:22:18;;;;;;;2.05;0.90;;;17.40;58.00;;;;;;5046679;28;20678;-62
2020/12/25 02:24:43;;;;;;;1.60;0.95;;;17.40;58.10;;;;;;5046450;28;20172;-62
2020/12/25 02:27:09;;;;;;;1.92;0.88;;;17.40;58.10;;;;;;5046452;28;20207;-62
2020/12/25 02:29:34;;;;;;;2.55;0.90;;;17.40;58.10;;;;;;5046634;28;20183;-63
2020/12/25 02:32:00;;;;;;;2.20;1.10;;;17.40;58.00;;;;;;5046270;28;20185;-62
2020/12/25 02:34:25;;;;;;;1.38;0.88;;;17.40;58.00;;;;;;5046177;28;20262;-61
2020/12/25 02:36:51;;;;;;;1.65;0.70;;;17.40;58.00;;;;;;5045724;28;20215;-63
2020/12/25 02:39:16;;;;;;;1.15;0.88;;;17.40;57.90;;;;;;5046518;28;20692;-64
2020/12/25 02:41:42;;;;;;;2.40;0.90;;;17.40;57.90;;;;;;5046205;28;20864;-63
2020/12/25 02:44:07;;;;;;;1.20;0.90;;;17.40;57.80;;;;;;5046025;28;20362;-63
2020/12/25 02:46:33;;;;;;;1.48;0.90;;;17.40;57.80;;;;;;5045753;28;20198;-63
2020/12/25 02:48:58;;;;;;;1.52;0.70;;;17.40;57.80;;;;;;5045964;28;20258;-63
2020/12/25 02:51:24;;;;;;;0.75;0.60;;;17.40;57.80;;;;;;5046045;28;20276;-62
2020/12/25 02:53:49;;;;;;;1.17;0.70;;;17.30;57.70;;;;;;5045891;28;20175;-62
2020/12/25 02:56:19;;;;;;;1.83;0.73;;;17.30;57.70;;;;;;5045391;28;20191;-62
2020/12/25 02:58:45;;;;;;;1.25;0.73;;;17.30;57.70;;;;;;5045893;28;20175;-59
2020/12/25 03:01:14;;;;;;;1.88;0.90;;;17.30;57.70;;;;;;5045707;28;20213;-62
2020/12/25 03:03:40;;;;;;;0.77;0.70;;;17.30;57.70;;;;;;5045898;28;20286;-62
2020/12/25 03:06:05;;;;;;;2.67;0.90;;;17.30;58.00;;;;;;5045508;28;21158;-61
2020/12/25 03:08:31;;;;;;;0.70;0.70;;;17.30;57.80;;;;;;5027575;28;20649;-62
2020/12/25 03:10:57;;;;;;;1.58;1.10;;;17.30;57.70;;;;;;5045229;28;20225;-62
2020/12/25 03:13:23;;;;;;;2.13;0.75;;;17.20;57.70;;;;;;5045411;28;20179;-62
2020/12/25 03:15:48;;;;;;;1.25;0.93;;;17.20;57.70;;;;;;5045744;28;20194;-62
2020/12/25 03:18:14;;;;;;;1.13;0.80;;;17.20;57.70;;;;;;5045394;28;20258;-63
2020/12/25 03:20:39;;;;;;;0.88;0.80;;;17.30;57.70;;;;;;5045399;28;20179;-63
2020/12/25 03:23:05;;;;;;;1.33;0.88;;;17.20;57.70;;;;;;5045272;28;20175;-63
2020/12/25 03:25:30;;;;;;;1.58;0.77;;;17.20;57.70;;;;;;5045228;28;20175;-63
2020/12/25 03:27:56;;;;;;;0.82;0.63;;;17.20;57.70;;;;;;5045269;28;20811;-62
2020/12/25 03:30:21;;;;;;;1.63;0.75;;;17.20;57.70;;;;;;5027520;28;20522;-62
2020/12/25 03:32:47;;;;;;;1.00;0.80;;;17.20;57.70;;;;;;5045246;28;20175;-62
2020/12/25 03:35:12;;;;;;;1.33;0.70;;;17.20;57.60;;;;;;5045165;28;20183;-62
2020/12/25 03:37:38;;;;;;;1.60;0.90;;;17.20;57.70;;;;;;5045038;28;20250;-62
2020/12/25 03:40:04;;;;;;;1.70;0.82;;;17.20;57.60;;;;;;5044877;28;20203;-61
2020/12/25 03:42:30;;;;;;;1.70;0.75;;;17.20;57.50;;;;;;5027453;28;20175;-62
2020/12/25 03:44:55;;;;;;;2.38;0.80;;;17.10;57.60;;;;;;5044945;28;20632;-62
2020/12/25 03:47:25;;;;;;;1.73;0.75;;;17.10;57.50;;;;;;5044171;28;20301;-62
2020/12/25 03:49:51;;;;;;;1.98;0.90;;;17.10;57.50;;;;;;5045029;28;20180;-62
2020/12/25 03:52:17;;;;;;;1.00;0.70;;;17.10;57.60;;;;;;5044827;28;20333;-63
2020/12/25 03:54:42;;;;;;;0.90;0.63;;;17.10;57.40;;;;;;5044905;28;20727;-62
2020/12/25 03:57:08;;;;;;;2.17;0.88;;;17.10;57.60;;;;;;5044499;28;20258;-62
2020/12/25 03:59:34;;;;;;;1.08;0.73;;;17.10;57.50;;;;;;5044439;28;20181;-61
2020/12/25 04:01:59;;;;;;;1.23;0.70;;;17.10;57.50;;;;;;5044574;28;20277;-61
2020/12/25 04:04:25;;;;;;;0.65;0.60;;;17.10;57.50;;;;;;5044819;28;20168;-61
2020/12/25 04:06:50;;;;;;;1.55;0.90;;;17.10;57.50;;;;;;5044479;28;20670;-61
2020/12/25 04:09:16;;;;;;;1.85;0.80;;;17.00;57.50;;;;;;5044245;28;20711;-62
2020/12/25 04:11:41;;;;;;;1.13;0.73;;;17.10;57.50;;;;;;5044684;28;20582;-61
2020/12/25 04:14:07;;;;;;;1.25;0.70;;;17.10;57.40;;;;;;5044509;28;20232;-61
2020/12/25 04:16:32;;;;;;;0.63;0.50;;;17.00;57.30;;;;;;5044411;28;20266;-61
2020/12/25 04:18:58;;;;;;;1.45;0.77;;;17.00;57.30;;;;;;5044477;28;20246;-61
2020/12/25 04:21:24;;;;;;;1.20;0.80;;;17.00;57.30;;;;;;5044832;28;20175;-62
2020/12/25 04:23:51;;;;;;;1.33;1.10;;;17.00;57.30;;;;;;5044425;28;20205;-62
2020/12/25 04:26:16;;;;;;;1.88;0.70;;;17.00;57.30;;;;;;5044348;28;20199;-61
2020/12/25 04:28:42;;;;;;;0.80;0.60;;;17.00;57.30;;;;;;5044384;28;20294;-61
2020/12/25 04:31:08;;;;;;;1.70;0.85;;;17.00;57.40;;;;;;5044370;28;20250;-62
2020/12/25 04:33:34;;;;;;;0.88;0.70;;;17.00;57.30;;;;;;5044257;28;20238;-62
2020/12/25 04:35:59;;;;;;;0.70;0.70;;;17.00;57.40;;;;;;5044461;28;20179;-61
2020/12/25 04:38:25;;;;;;;1.33;0.68;;;16.90;57.30;;;;;;5044163;28;20176;-61
2020/12/25 04:40:51;;;;;;;1.33;0.70;;;16.90;57.40;;;;;;5026571;28;20182;-61
2020/12/25 04:43:16;;;;;;;1.08;0.90;;;16.90;57.40;;;;;;5043932;28;20628;-62
2020/12/25 04:45:42;;;;;;;1.80;0.50;;;16.90;57.30;;;;;;5026589;28;20246;-63
2020/12/25 04:48:08;;;;;;;1.60;0.82;;;16.90;57.30;;;;;;5044003;28;20244;-61
2020/12/25 04:50:33;;;;;;;0.63;0.63;;;16.90;57.30;;;;;;5026490;28;20710;-60
2020/12/25 04:53:00;;;;;;;1.85;0.80;;;16.90;57.30;;;;;;5044051;28;20172;-62
2020/12/25 04:55:25;;;;;;;1.20;0.80;;;16.90;57.30;;;;;;5043921;28;20703;-61
2020/12/25 04:57:53;;;;;;;1.42;0.60;;;16.90;57.30;;;;;;5043748;28;20179;-61
2020/12/25 05:00:21;;;;;;;1.17;0.70;;;16.80;57.30;;;;;;5048220;28;20392;-62
2020/12/25 05:02:48;;;;;;;0.55;0.50;;;16.80;57.30;;;;;;5030621;28;20178;-59
2020/12/25 05:05:17;;;;;;;0.85;0.75;;;16.80;57.30;;;;;;5048065;28;20243;-62
2020/12/25 05:07:46;;;;;;;0.98;0.77;;;16.80;57.30;;;;;;5030277;28;20276;-62
2020/12/25 05:10:12;;;;;;;1.02;0.70;;;16.80;57.30;;;;;;5030192;28;20187;-60
2020/12/25 05:12:37;;;;;;;1.48;0.60;;;16.80;57.30;;;;;;5030195;28;20637;-63
2020/12/25 05:15:07;;;;;;;1.35;0.68;;;16.80;57.20;;;;;;5047939;28;20262;-61
2020/12/25 05:17:32;;;;;;;0.63;0.60;;;16.80;57.30;;;;;;5047739;28;20175;-62
2020/12/25 05:19:58;;;;;;;1.63;0.70;;;16.80;57.30;;;;;;5013924;28;20533;-62
2020/12/25 05:22:24;;;;;;;2.40;0.60;;;16.80;57.30;;;;;;5029798;28;20167;-63
2020/12/25 05:24:49;;;;;;;0.60;0.60;;;16.80;57.30;;;;;;5029890;28;20167;-62
2020/12/25 05:27:15;;;;;;;1.55;0.63;;;16.70;57.20;;;;;;5047026;28;20230;-62
2020/12/25 05:29:41;;;;;;;0.80;0.50;;;16.80;57.30;;;;;;5029812;28;20197;-61
2020/12/25 05:32:07;;;;;;;1.10;0.57;;;16.70;57.20;;;;;;5030027;28;20262;-61
2020/12/25 05:34:33;;;;;;;3.83;0.73;;;16.70;57.30;;;;;;5047673;28;20250;-61
2020/12/25 05:37:00;;;;;;;1.15;0.80;;;16.70;57.30;;;;;;5047499;28;20199;-63
2020/12/25 05:39:29;;;;;;;0.50;0.40;;;16.70;57.30;;;;;;5047589;28;20167;-63
2020/12/25 05:42:07;;;;;;;0.77;0.57;;;16.70;57.30;;;;;;5047132;28;20175;-63
2020/12/25 05:44:47;;;;;;;1.30;0.68;;;16.70;57.20;;;;;;5046960;28;20175;-63
2020/12/25 05:47:14;;;;;;;0.50;0.50;;;16.70;57.30;;;;;;5046906;28;20210;-64
2020/12/25 05:49:39;;;;;;;0.43;0.43;;;16.70;57.30;;;;;;5046922;28;20178;-63
2020/12/25 05:52:05;;;;;;;1.75;0.77;;;16.60;57.20;;;;;;5046942;28;20171;-63
2020/12/25 05:54:30;;;;;;;0.68;0.60;;;16.60;57.30;;;;;;5047089;28;20236;-63
2020/12/25 05:56:57;;;;;;;1.48;0.82;;;16.60;57.30;;;;;;5029465;28;20190;-62
2020/12/25 05:59:30;;;;;;;0.85;0.65;;;16.60;57.40;;;;;;5047218;28;20286;-62
2020/12/25 06:02:03;;;;;;;1.20;0.60;;;16.70;57.40;;;;;;5046829;28;20176;-61
2020/12/25 06:04:30;;;;;;;0.68;0.65;;;16.70;57.30;;;;;;5047067;28;20266;-62
2020/12/25 06:06:56;;;;;;;0.80;0.50;;;16.70;57.40;;;;;;5047006;28;20172;-62
2020/12/25 06:09:31;;;;;;;0.45;0.30;;;16.80;57.40;;;;;;5046328;28;20236;-63
2020/12/25 06:11:57;;;;;;;1.08;0.60;;;16.90;57.50;;;;;;5028399;28;20189;-61
2020/12/25 06:14:23;;;;;;;0.63;0.60;;;17.00;57.30;;;;;;5029499;28;20637;-63
2020/12/25 06:17:12;;;;;;;0.88;0.70;;;17.10;57.10;;;;;;5046395;28;20186;-63
2020/12/25 06:19:40;;;;;;;0.60;0.60;;;17.30;56.90;;;;;;5013632;28;20187;-62
2020/12/25 06:22:08;;;;;;;0.98;0.60;;;17.40;56.70;;;;;;5046564;28;20237;-61
2020/12/25 06:24:35;;;;;;;1.30;0.40;;;17.50;56.40;;;;;;5029000;28;20198;-61
2020/12/25 06:27:01;;;;;;;0.70;0.50;;;17.70;56.20;;;;;;5028778;28;20254;-60
2020/12/25 06:29:27;;;;;;;0.77;0.47;;;17.80;56.00;;;;;;5028585;28;20286;-62
2020/12/25 06:31:54;;;;;;;1.02;0.50;;;17.90;55.80;;;;;;5028753;28;20640;-61
2020/12/25 06:34:20;;;;;;;1.20;0.70;;;18.00;55.80;;;;;;5046287;28;20171;-62
2020/12/25 06:36:46;;;;;;;0.50;0.50;;;18.00;55.70;;;;;;5046248;28;20176;-62
2020/12/25 06:39:21;;;;;;;0.50;0.50;;;18.20;55.50;;;;;;5028507;28;20267;-62
2020/12/25 06:41:47;;;;;;;0.63;0.32;;;18.30;55.20;;;;;;5046081;28;20174;-61
2020/12/25 06:44:16;;;;;;;1.40;0.63;;;18.30;55.00;;;;;;5046161;28;20175;-62
2020/12/25 06:46:49;;;;;;;0.60;0.50;;;18.40;55.00;;;;;;5046346;28;20179;-62
2020/12/25 06:49:15;;;;;;;0.50;0.45;;;18.40;54.90;;;;;;5046275;28;20189;-62
2020/12/25 06:51:44;;;;;;;0.60;0.50;;;18.30;55.00;;;;;;5046307;28;20171;-61
2020/12/25 06:54:17;;;;;;;1.13;0.60;;;18.20;55.10;;;;;;5046234;28;20171;-62
2020/12/25 06:56:42;;;;;;;0.93;0.52;;;18.10;55.30;;;;;;5045324;28;20567;-62
2020/12/25 06:59:18;;;;;;;0.50;0.50;;;18.10;55.50;;;;;;5045695;28;20171;-62
2020/12/25 07:01:45;;;;;;;0.63;0.50;;;18.00;55.50;;;;;;5045718;28;20197;-62
2020/12/25 07:04:30;;;;;;;0.55;0.45;;;17.90;55.70;;;;;;5045505;28;20179;-61
2020/12/25 07:07:01;;;;;;;1.05;0.65;;;17.90;55.80;;;;;;5045710;28;20180;-62
2020/12/25 07:09:47;;;;;;;1.48;0.50;;;17.80;55.90;;;;;;5045416;28;20175;-62
2020/12/25 07:12:14;;;;;;;0.60;0.50;;;17.70;56.10;;;;;;5045858;28;20171;-62
2020/12/25 07:14:40;;;;;;;1.02;0.50;;;17.60;56.10;;;;;;5045801;28;20178;-62
2020/12/25 07:17:05;;;;;;;0.88;0.40;;;17.60;56.20;;;;;;5027685;28;20183;-62
2020/12/25 07:19:33;;;;;;;1.23;0.50;;;17.50;56.30;;;;;;5045484;28;20179;-63
2020/12/25 07:21:59;;;;;;;1.95;0.57;;;17.50;56.30;;;;;;5027545;28;20203;-62
2020/12/25 07:24:25;;;;;;;0.55;0.50;;;17.40;56.30;;;;;;5027772;28;20266;-63
2020/12/25 07:26:53;;;;;;;0.60;0.60;;;17.40;56.50;;;;;;5027779;28;20183;-62
2020/12/25 07:29:19;;;;;;;0.70;0.50;;;17.30;56.50;;;;;;5045601;28;20286;-62
2020/12/25 07:31:45;;;;;;;0.40;0.40;;;17.50;56.60;;;;;;5045457;28;20262;-62
2020/12/25 07:34:15;;;;;;;0.65;0.40;;;17.40;56.40;;;;;;5027734;28;20167;-62
2020/12/25 07:36:41;;;;;;;0.73;0.65;;;17.50;56.40;;;;;;5045195;28;20178;-62
2020/12/25 07:39:06;;;;;;;1.17;0.70;;;17.40;56.40;;;;;;5044737;28;20175;-62
2020/12/25 07:41:34;;;;;;;1.23;0.70;;;17.40;56.40;;;;;;5045038;28;20173;-63
2020/12/25 07:44:02;;;;;;;0.82;0.50;;;17.40;56.40;;;;;;5044975;28;20646;-62
2020/12/25 07:46:29;;;;;;;0.75;0.57;;;17.30;56.40;;;;;;5045006;28;20201;-63
2020/12/25 07:48:56;;;;;;;1.98;0.52;;;17.30;56.50;;;;;;5044794;28;20676;-63
2020/12/25 07:51:21;;;;;;;0.65;0.50;;;17.30;56.60;;;;;;5010789;28;20645;-61
2020/12/25 07:54:05;;;;;;;1.75;0.65;;;17.20;56.50;;;;;;5044520;28;20253;-62
2020/12/25 07:56:34;;;;;;;1.55;0.52;;;17.20;56.60;;;;;;5045175;28;20220;-63
2020/12/25 07:58:59;;;;;;;0.93;0.40;;;17.20;56.60;;;;;;5044755;28;20194;-62
2020/12/25 08:01:26;;;;;;;1.08;0.47;;;17.30;56.60;;;;;;5044546;28;20633;-63
2020/12/25 08:03:52;;;;;;;0.95;0.68;;;17.30;56.50;;;;;;5044686;28;20262;-62
2020/12/25 08:06:19;;;;;;;0.63;0.43;;;17.30;56.50;;;;;;5044639;28;20599;-62
2020/12/25 08:08:58;;;;;;;0.52;0.45;;;17.30;56.50;;;;;;5044369;28;20313;-61
2020/12/25 08:11:24;;;;;;;0.50;0.50;;;17.20;56.40;;;;;;5026698;28;20187;-61
2020/12/25 08:13:49;;;;;;;1.92;0.50;;;17.30;56.50;;;;;;5044526;28;20185;-62
2020/12/25 08:16:15;;;;;;;0.70;0.60;;;17.20;56.50;;;;;;5026760;28;20540;-63
2020/12/25 08:18:41;;;;;;;0.50;0.40;;;17.20;56.60;;;;;;5026575;28;20221;-62
2020/12/25 08:21:06;;;;;;;0.50;0.50;;;17.20;56.60;;;;;;5044074;28;20183;-63
2020/12/25 08:23:35;;;;;;;0.73;0.40;;;17.20;56.60;;;;;;5026399;28;20175;-62
2020/12/25 08:26:02;;;;;;;0.82;0.50;;;17.20;56.70;;;;;;5044118;28;20274;-61
2020/12/25 08:28:30;;;;;;;0.80;0.50;;;17.20;56.70;;;;;;5043707;28;20653;-62
2020/12/25 08:30:56;;;;;;;0.65;0.40;;;17.20;56.60;;;;;;5044102;28;20175;-61
2020/12/25 08:33:23;;;;;;;0.80;0.50;;;17.20;56.50;;;;;;5043349;28;20179;-66
2020/12/25 08:35:48;;;;;;;1.40;0.70;;;17.20;56.50;;;;;;5044323;28;20199;-66
2020/12/25 08:38:16;;;;;;;2.05;0.80;;;17.20;56.50;;;;;;5043991;28;20277;-66
2020/12/25 08:40:42;;;;;;;1.13;0.85;;;17.20;56.30;;;;;;5044048;28;20178;-65
2020/12/25 08:43:17;;;;;;;4.97;0.50;;;17.10;56.30;;;;;;5026813;28;20178;-68
2020/12/25 08:45:58;;;;;;;1.70;0.40;;;17.20;56.20;;;;;;5043868;28;20217;-66
2020/12/25 08:48:23;;;;;;;1.20;0.50;;;17.20;56.10;;;;;;5043806;28;20249;-66
2020/12/25 08:50:49;;;;;;;2.13;0.70;;;17.10;56.00;;;;;;5026443;28;20573;-66
2020/12/25 08:53:21;;;;;;;1.25;0.60;;;17.10;56.60;;;;;;5044234;28;20174;-66
2020/12/25 08:55:49;;;;;;;2.85;0.80;;;17.10;55.90;;;;;;5043974;28;20178;-65
2020/12/25 08:58:18;;;;;;;1.13;0.50;;;17.20;55.80;;;;;;5026259;28;20171;-65
2020/12/25 09:01:00;;;;;;;1.33;0.52;;;17.20;55.80;;;;;;5043911;28;20244;-65
2020/12/25 09:03:41;;;;;;;1.98;0.57;;;17.30;55.80;;;;;;5044000;28;20167;-66
2020/12/25 09:06:08;;;;;;;2.17;0.82;;;17.20;55.60;;;;;;5043846;28;20171;-66
2020/12/25 09:08:33;;;;;;;0.73;0.60;;;17.30;55.60;;;;;;5026153;28;20207;-66
2020/12/25 09:10:59;;;;;;;2.05;0.82;;;17.30;55.60;;;;;;5043858;28;20591;-66
2020/12/25 09:13:24;;;;;;;0.57;0.50;;;17.30;55.60;;;;;;5043551;28;20237;-66
2020/12/25 09:15:50;;;;;;;1.90;0.68;;;17.30;55.40;;;;;;5043934;28;20203;-66
2020/12/25 09:18:16;;;;;;;1.90;0.70;;;17.30;55.40;;;;;;5043883;28;20205;-66
2020/12/25 09:20:41;;;;;;;1.00;0.80;;;17.40;55.40;;;;;;5026075;28;20179;-67
2020/12/25 09:23:07;;;;;;;1.20;0.70;;;17.40;55.40;;;;;;5043643;28;20178;-66
2020/12/25 09:25:32;;;;;;;1.95;0.80;;;17.40;55.20;;;;;;5043630;28;20229;-66
2020/12/25 09:27:58;;;;;;;1.65;0.70;;;17.50;55.30;;;;;;5043659;28;20214;-66
2020/12/25 09:30:23;;;;;;;2.63;1.35;;;17.50;55.20;;;;;;5043466;28;20171;-65
2020/12/25 09:32:49;;;;;;;0.50;0.50;;;17.50;54.90;;;;;;5043826;28;20198;-68
2020/12/25 09:35:14;;;;;;;1.98;0.82;;;17.60;55.00;;;;;;5043684;28;20180;-68
2020/12/25 09:37:40;;;;;;;2.53;0.95;;;17.70;55.20;;;;;;5043873;28;20210;-64
2020/12/25 09:40:05;;;;;;;3.38;1.10;;;17.60;54.90;;;;;;5043829;28;20214;-65
2020/12/25 09:42:31;;;;;;;1.40;1.00;;;17.50;54.90;;;;;;5043499;28;20183;-65
2020/12/25 09:44:57;;;;;;;2.92;0.90;;;17.40;55.00;;;;;;5045044;28;20179;-66
2020/12/25 09:47:22;;;;;;;1.52;0.80;;;17.50;55.20;;;;;;5047513;28;20712;-65
2020/12/25 09:49:48;;;;;;;2.80;1.00;;;17.50;55.10;;;;;;5047654;28;20607;-65
2020/12/25 09:52:13;;;;;;;2.33;1.10;;;17.60;55.20;;;;;;5047189;28;20590;-65
2020/12/25 09:54:39;;;;;;;2.08;0.77;;;17.60;55.20;;;;;;5047112;28;20237;-65
2020/12/25 09:57:04;;;;;;;1.77;0.80;;;17.60;55.20;;;;;;5046983;28;20638;-64
2020/12/25 09:59:30;;;;;;;1.48;0.77;;;17.60;55.30;;;;;;5049685;28;20552;-64
2020/12/25 10:01:56;;;;;;;3.20;1.00;;;17.60;55.30;;;;;;5055701;28;20386;-64
2020/12/25 10:04:21;;;;;;;2.17;0.75;;;17.60;55.50;;;;;;5046005;28;20181;-64
2020/12/25 10:06:47;;;;;;;1.80;0.70;;;17.50;55.60;;;;;;5066684;28;20976;-65
2020/12/25 10:09:12;;;;;;;1.48;0.88;;;17.50;55.70;;;;;;5066628;28;20206;-66
2020/12/25 10:11:38;;;;;;;2.38;0.88;;;17.50;55.70;;;;;;5066516;28;20174;-65
2020/12/25 10:14:03;;;;;;;2.00;0.93;;;17.50;55.80;;;;;;5066719;28;20182;-65
2020/12/25 10:16:29;;;;;;;3.03;1.05;;;17.40;55.80;;;;;;5066773;28;20949;-65
2020/12/25 10:18:55;;;;;;;3.10;0.80;;;17.50;56.00;;;;;;5066766;28;20344;-64
2020/12/25 10:21:20;;;;;;;2.33;0.90;;;17.50;56.00;;;;;;5066317;28;20560;-63
2020/12/25 10:23:46;;;;;;;1.15;0.80;;;17.40;56.10;;;;;;5066072;28;20175;-65
2020/12/25 10:26:11;;;;;;;1.08;0.70;;;17.30;56.20;;;;;;5066325;28;20250;-66
2020/12/25 10:28:38;;;;;;;3.13;1.35;;;17.30;56.20;;;;;;5066147;28;20980;-65
2020/12/25 10:31:04;;;;;;;2.00;0.90;;;17.30;56.30;;;;;;5066521;28;20178;-64
2020/12/25 10:33:29;;;;;;;1.65;0.88;;;17.30;56.30;;;;;;5066141;28;20182;-66
2020/12/25 10:35:55;;;;;;;4.25;1.13;;;17.30;56.40;;;;;;5066359;28;20227;-64
2020/12/25 10:38:20;;;;;;;1.35;0.75;;;17.30;56.40;;;;;;5048390;28;20213;-65
2020/12/25 10:40:47;;;;;;;1.83;0.80;;;17.30;56.50;;;;;;5065927;28;20167;-73
2020/12/25 10:43:12;;;;;;;1.40;1.00;;;17.40;56.60;;;;;;5039417;28;20178;-72
2020/12/25 10:45:38;;;;;;;0.68;0.57;;;17.40;56.40;;;;;;5054357;28;20171;-71
2020/12/25 10:48:04;;;;;;;2.85;1.10;;;17.40;56.20;;;;;;5059085;28;20206;-71
2020/12/25 10:50:29;;;;;;;1.50;0.98;;;17.40;56.10;;;;;;5065676;28;20544;-71
2020/12/25 10:52:55;;;;;;;2.15;0.85;;;17.40;56.20;;;;;;5047082;28;20198;-72
2020/12/25 10:55:21;;;;;;;1.73;0.90;;;17.40;56.80;;;;;;5045817;28;20198;-71
2020/12/25 10:57:46;;;;;;;2.03;0.80;;;17.30;56.10;;;;;;5045202;28;20317;-71
2020/12/25 11:00:12;;;;;;;3.70;0.93;;;17.30;56.10;;;;;;5053324;28;20520;-70
2020/12/25 11:02:37;;;;;;;3.83;0.98;;;17.30;56.10;;;;;;5065856;28;20685;-71
2020/12/25 11:05:04;;;;;;;1.88;0.88;;;17.20;56.10;;;;;;5065493;28;20186;-70
2020/12/25 11:07:29;;;;;;;0.95;0.70;;;17.30;56.10;;;;;;5065753;28;20259;-70
2020/12/25 11:09:55;;;;;;;2.10;1.00;;;17.20;56.00;;;;;;5065479;28;20178;-70
2020/12/25 11:12:21;;;;;;;1.98;0.90;;;17.30;56.00;;;;;;5065718;28;20261;-71
2020/12/25 11:14:46;;;;;;;0.80;0.50;;;17.40;56.00;;;;;;5065853;28;20183;-71
2020/12/25 11:17:15;;;;;;;1.50;0.68;;;17.50;55.80;;;;;;5058162;28;20560;-73
2020/12/25 11:19:44;;;;;;;1.90;0.70;;;17.50;55.70;;;;;;5045109;28;20175;-71
2020/12/25 11:22:14;;;;;;;2.03;0.90;;;17.60;55.60;;;;;;5045282;28;20536;-69
2020/12/25 11:24:43;;;;;;;1.75;0.90;;;17.60;55.50;;;;;;5045330;28;20176;-70
2020/12/25 11:27:09;;;;;;;0.65;0.60;;;17.70;55.40;;;;;;5044878;28;20178;-70
2020/12/25 11:29:35;;;;;;;1.85;0.70;;;17.70;55.30;;;;;;5044874;28;20174;-71
2020/12/25 11:32:00;;;;;;;1.15;0.90;;;17.70;55.30;;;;;;5044710;28;20190;-72
2020/12/25 11:34:26;;;;;;;1.42;0.52;;;17.70;55.40;;;;;;5045364;28;20171;-73
2020/12/25 11:36:52;;;;;;;0.85;0.70;;;17.60;55.40;;;;;;5045082;28;20684;-72
2020/12/25 11:39:17;;;;;;;1.90;0.82;;;17.60;55.40;;;;;;5045061;28;20670;-72
2020/12/25 11:41:43;;;;;;;1.75;0.85;;;17.60;55.50;;;;;;5044783;28;20183;-71
2020/12/25 11:44:08;;;;;;;1.95;0.70;;;17.60;55.40;;;;;;5044764;28;20179;-72
2020/12/25 11:46:34;;;;;;;1.20;0.82;;;17.70;55.40;;;;;;5045234;28;20175;-72
2020/12/25 11:48:59;;;;;;;1.50;0.73;;;17.70;55.30;;;;;;5044718;28;20206;-72
2020/12/25 11:51:26;;;;;;;1.17;0.88;;;17.70;55.30;;;;;;5052255;28;20329;-71
2020/12/25 11:53:52;;;;;;;1.65;0.90;;;17.70;55.30;;;;;;5064359;28;20167;-72
2020/12/25 11:56:19;;;;;;;1.95;0.73;;;17.70;55.40;;;;;;5064780;28;20185;-71
2020/12/25 11:58:44;;;;;;;1.63;0.88;;;17.70;55.40;;;;;;5046944;28;20178;-71
2020/12/25 12:01:10;;;;;;;1.10;0.60;;;17.60;55.40;;;;;;5030311;28;20534;-71
2020/12/25 12:03:35;;;;;;;0.77;0.50;;;17.60;55.40;;;;;;5064671;28;20200;-71
2020/12/25 12:06:01;;;;;;;1.05;0.80;;;17.60;55.50;;;;;;5058110;28;20179;-71
2020/12/25 12:08:27;;;;;;;2.00;0.60;;;17.50;55.50;;;;;;5051962;28;20276;-71
2020/12/25 12:10:53;;;;;;;2.53;0.90;;;17.60;55.40;;;;;;5058705;28;20612;-71
2020/12/25 12:13:18;;;;;;;0.98;0.50;;;17.60;55.30;;;;;;5064672;28;20535;-68
2020/12/25 12:15:44;;;;;;;3.42;1.02;;;17.70;55.20;;;;;;5044901;28;20171;-61
2020/12/25 12:18:09;;;;;;;0.50;0.43;;;17.70;55.10;;;;;;5048904;28;20206;-65
2020/12/25 12:20:35;;;;;;;0.73;0.60;;;17.70;55.20;;;;;;5035365;28;20170;-66
2020/12/25 12:23:01;;;;;;;0.90;0.55;;;17.70;55.20;;;;;;5053773;28;20170;-66
2020/12/25 12:25:27;;;;;;;1.85;0.68;;;17.70;55.20;;;;;;5052532;28;20628;-67
2020/12/25 12:27:53;;;;;;;1.42;0.57;;;17.80;55.30;;;;;;5052171;28;20221;-67
2020/12/25 12:30:18;;;;;;;0.68;0.65;;;18.00;55.30;;;;;;5036375;28;20178;-67
2020/12/25 12:32:44;;;;;;;1.33;0.77;;;18.10;55.10;;;;;;5052078;28;20178;-66
2020/12/25 12:35:10;;;;;;;1.17;0.60;;;18.40;54.80;;;;;;5052834;28;20188;-64
2020/12/25 12:37:35;;;;;;;1.23;0.65;;;18.80;54.20;;;;;;5035406;28;21072;-63
2020/12/25 12:40:01;;;;;;;3.88;0.73;;;19.20;53.60;;;;;;5051566;28;20175;-64
2020/12/25 12:42:26;;;;;;;1.10;0.77;;;19.50;53.10;;;;;;5052960;28;20178;-67
2020/12/25 12:44:52;;;;;;;0.73;0.60;;;19.60;52.80;;;;;;5052818;28;20198;-66